Burlington, North Dakota
Current Conditions -  °F | °C
As of 8:54 AM on Wednesday 22 Oct 2014 (Local Time) from KMOT Reporting Station
Few Clouds Few Clouds  
Wind Chill: 53°   Ceiling: Unl
Heat Index: 53°   Visibility: 10mi
Dew Point: 44°   Wind: 21mph
Humidity: 71%   Direction: 240°WSW
Pressure: 29.72"   Gusts: 31mph
Location:  48.28°N, 101.43°W
Report Text: KMOT 221354Z 24018G27KT 10SM FEW100 12/07 A2972 RMK AO2 PK WND 23027/1350 SLP067 T01170067
Loading
Personal Weather Stations






























Interactive Weather Map
Tropical Storm Tracking
New forecast layout! Learn more

10-Day Weather Forecast

Advertisements
Track Severe Weather on mobile